Time;durP1;ratioP1;P1;durP2;ratioP2;P2;SDS_P1;SDS_P2;PMS_P1;PMS_P2;Temp;Humidity;BMP_temperature;BMP_pressure;BME280_temperature;BME280_humidity;BME280_pressure;Samples;Min_cycle;Max_cycle;Signal;HPM_P1;HPM_P2
2023/03/24 00:02:22;;;;;;;8.05;3.25;;;;;;;12.75;100.00;99685.81;5027404;28;20079;-62
2023/03/24 00:04:51;;;;;;;11.63;3.40;;;;;;;12.74;100.00;99694.69;5013195;28;20030;-62
2023/03/24 00:07:18;;;;;;;9.63;2.85;;;;;;;12.68;100.00;99677.41;4991876;28;20061;-63
2023/03/24 00:09:44;;;;;;;11.45;3.30;;;;;;;12.68;100.00;99680.06;5008959;28;20300;-61
2023/03/24 00:12:11;;;;;;;6.30;3.10;;;;;;;12.71;100.00;99673.72;5008840;28;20030;-62
2023/03/24 00:14:40;;;;;;;9.40;2.80;;;;;;;12.71;100.00;99668.44;5022832;28;20030;-61
2023/03/24 00:17:08;;;;;;;6.63;3.15;;;;;;;12.64;100.00;99674.09;5027143;28;20029;-61
2023/03/24 00:19:37;;;;;;;8.50;3.10;;;;;;;12.71;100.00;99679.00;5029273;28;20030;-62
2023/03/24 00:22:06;;;;;;;;;;;;;;;12.78;100.00;99651.25;5029169;28;20029;-60
2023/03/24 00:24:32;;;;;;;;;;;;;;;12.73;100.00;99654.19;5028028;28;20328;-65
2023/03/24 00:26:57;;;;;;;5.32;2.90;;;;;;;12.82;100.00;99644.81;5027099;28;19913;-60
2023/03/24 00:29:24;;;;;;;5.90;2.75;;;;;;;12.84;100.00;99652.66;5027209;28;20112;-64
2023/03/24 00:31:51;;;;;;;4.80;2.92;;;;;;;12.88;100.00;99641.78;5028174;28;20029;-63
2023/03/24 00:34:20;;;;;;;6.40;3.10;;;;;;;12.91;100.00;99653.13;5027119;28;20049;-62
2023/03/24 00:36:46;;;;;;;4.85;2.60;;;;;;;12.97;100.00;99640.38;5028765;28;20059;-62
2023/03/24 00:39:11;;;;;;;7.72;3.00;;;;;;;12.99;100.00;99637.63;5027229;28;20057;-63
2023/03/24 00:41:36;;;;;;;8.57;3.08;;;;;;;12.99;100.00;99629.69;5010486;28;20038;-61
2023/03/24 00:44:04;;;;;;;6.55;3.10;;;;;;;13.09;100.00;99633.44;5008466;28;20018;-62
2023/03/24 00:46:31;;;;;;;3.90;2.35;;;;;;;13.11;100.00;99636.00;5007741;28;20021;-63
2023/03/24 00:49:01;;;;;;;5.63;3.15;;;;;;;13.11;100.00;99623.63;5008124;28;20057;-60
2023/03/24 00:51:35;;;;;;;11.77;3.50;;;;;;;13.20;100.00;99618.69;5008669;28;20026;-62
2023/03/24 00:54:01;;;;;;;6.45;2.65;;;;;;;13.06;100.00;99623.06;5008152;28;20478;-63
2023/03/24 00:56:28;;;;;;;7.65;2.95;;;;;;;13.07;100.00;99616.84;5008604;28;20101;-62
2023/03/24 00:58:56;;;;;;;7.35;2.85;;;;;;;13.10;100.00;99613.97;5010204;28;20026;-61
2023/03/24 01:01:23;;;;;;;8.68;3.22;;;;;;;13.13;100.00;99608.50;5026554;28;20025;-61
2023/03/24 01:03:49;;;;;;;6.22;2.80;;;;;;;13.16;100.00;99619.84;5025979;28;20049;-63
2023/03/24 01:06:16;;;;;;;7.78;2.60;;;;;;;13.21;100.00;99609.78;5010333;28;20155;-62
2023/03/24 01:08:42;;;;;;;7.35;3.17;;;;;;;13.24;100.00;99606.94;5008177;28;20109;-63
2023/03/24 01:11:08;;;;;;;7.60;2.80;;;;;;;13.07;100.00;99606.28;5006849;28;20115;-62
2023/03/24 01:13:33;;;;;;;5.78;3.30;;;;;;;13.06;100.00;99620.41;5008367;28;20500;-62
2023/03/24 01:15:58;;;;;;;4.85;2.50;;;;;;;13.02;100.00;99595.13;5020493;28;20024;-62
2023/03/24 01:18:24;;;;;;;4.25;2.47;;;;;;;13.08;100.00;99607.97;5027285;28;20033;-62
2023/03/24 01:20:49;;;;;;;3.45;2.60;;;;;;;12.99;100.00;99596.19;5008926;28;20042;-62
2023/03/24 01:23:20;;;;;;;2.88;2.55;;;;;;;12.95;100.00;99593.81;5025896;28;20120;-62
2023/03/24 01:25:47;;;;;;;6.97;2.83;;;;;;;12.94;100.00;99608.00;5026215;28;20116;-63
2023/03/24 01:28:17;;;;;;;3.97;2.53;;;;;;;12.99;100.00;99605.91;5027414;28;20079;-62
2023/03/24 01:30:44;;;;;;;7.95;3.22;;;;;;;12.99;100.00;99625.25;5026840;28;20025;-62
2023/03/24 01:33:09;;;;;;;5.18;3.00;;;;;;;12.92;100.00;99581.66;5026151;28;20553;-62
2023/03/24 01:35:35;;;;;;;7.70;2.67;;;;;;;12.98;100.00;99615.59;5026326;28;20037;-62
2023/03/24 01:38:04;;;;;;;4.78;2.67;;;;;;;12.94;100.00;99600.06;5011740;28;20057;-62
2023/03/24 01:40:31;;;;;;;4.15;2.88;;;;;;;12.88;100.00;99611.84;5006668;28;20470;-62
2023/03/24 01:42:57;;;;;;;5.65;2.45;;;;;;;12.80;100.00;99611.50;5007497;28;20109;-62
2023/03/24 01:45:38;;;;;;;2.95;2.40;;;;;;;12.93;100.00;99624.78;5007454;28;20113;-61
2023/03/24 01:48:13;;;;;;;8.48;2.55;;;;;;;12.95;100.00;99634.34;5006652;28;20219;-64
2023/03/24 01:50:39;;;;;;;5.65;2.53;;;;;;;12.97;100.00;99636.84;5006438;28;20113;-63
2023/03/24 01:53:05;;;;;;;5.05;2.67;;;;;;;12.89;100.00;99662.00;5007141;28;20109;-63
2023/03/24 01:55:31;;;;;;;7.78;2.65;;;;;;;12.98;100.00;99688.81;4989288;28;20048;-63
2023/03/24 01:57:59;;;;;;;7.85;2.25;;;;;;;13.02;100.00;99685.03;4990117;28;20064;-64
2023/03/24 02:00:24;;;;;;;5.27;1.80;;;;;;;12.92;100.00;99694.47;4989292;28;20116;-63
2023/03/24 02:02:54;;;;;;;5.00;1.80;;;;;;;12.87;100.00;99702.69;5005999;28;20108;-62
2023/03/24 02:05:22;;;;;;;5.15;1.40;;;;;;;12.72;100.00;99697.41;5010473;28;20025;-61
2023/03/24 02:07:55;;;;;;;1.90;1.00;;;;;;;12.58;100.00;99737.88;5026778;28;20471;-62
2023/03/24 02:10:22;;;;;;;7.45;1.52;;;;;;;12.49;100.00;99712.00;5008060;28;20057;-62
2023/03/24 02:12:48;;;;;;;11.68;1.92;;;;;;;12.31;100.00;99735.94;5008137;28;20037;-62
2023/03/24 02:15:14;;;;;;;6.53;1.63;;;;;;;12.30;100.00;99721.03;5025097;28;20087;-64
2023/03/24 02:18:17;;;;;;;14.25;2.10;;;;;;;12.20;100.00;99718.09;5018487;28;20021;-66
2023/03/24 02:21:07;;;;;;;13.43;2.67;;;;;;;11.98;100.00;99744.88;5025923;28;20029;-64
2023/03/24 02:24:06;;;;;;;8.77;1.80;;;;;;;11.91;100.00;99746.16;5025111;28;20395;-63
2023/03/24 02:26:52;;;;;;;10.60;1.88;;;;;;;11.85;100.00;99745.56;5008202;28;20065;-63
2023/03/24 02:29:33;;;;;;;14.35;2.10;;;;;;;11.83;100.00;99780.91;5007384;28;20737;-64
2023/03/24 02:32:04;;;;;;;8.73;1.73;;;;;;;11.93;100.00;99773.31;5025309;28;20661;-64
2023/03/24 02:34:53;;;;;;;8.93;1.80;;;;;;;11.70;100.00;99759.63;5025840;28;20041;-63
2023/03/24 02:37:31;;;;;;;11.80;1.80;;;;;;;11.67;100.00;99759.78;5026289;28;20029;-61
2023/03/24 02:40:21;;;;;;;11.25;2.20;;;;;;;11.60;100.00;99761.94;5026586;28;20029;-63
2023/03/24 02:42:57;;;;;;;10.80;2.13;;;;;;;11.50;100.00;99772.16;5008643;28;20034;-63
2023/03/24 02:45:38;;;;;;;14.48;2.10;;;;;;;11.36;100.00;99762.34;5025440;28;20485;-62
2023/03/24 02:48:25;;;;;;;9.48;2.17;;;;;;;11.32;100.00;99780.13;5008072;28;20033;-63
2023/03/24 02:51:07;;;;;;;17.75;2.33;;;;;;;11.24;100.00;99769.16;5001142;28;20092;-61
2023/03/24 02:53:50;;;;;;;14.27;3.15;;;;;;;11.26;100.00;99801.56;5010965;28;20066;-62
2023/03/24 02:56:31;;;;;;;12.77;2.50;;;;;;;11.16;100.00;99805.59;5010181;28;20072;-63
2023/03/24 02:59:05;;;;;;;13.27;1.98;;;;;;;10.89;100.00;99816.69;4993824;28;20037;-62
2023/03/24 03:01:57;;;;;;;15.48;2.42;;;;;;;10.80;100.00;99803.03;5005958;28;20589;-61
2023/03/24 03:04:28;;;;;;;14.05;2.33;;;;;;;10.94;100.00;99809.38;5011946;28;20064;-61
2023/03/24 03:06:57;;;;;;;17.75;3.00;;;;;;;10.84;100.00;99811.66;5021386;28;20030;-62
2023/03/24 03:09:23;;;;;;;16.60;3.88;;;;;;;10.69;100.00;99823.81;4992635;28;20046;-64
2023/03/24 03:11:52;;;;;;;11.23;2.47;;;;;;;10.66;100.00;99819.56;5011153;28;20029;-63
2023/03/24 03:14:21;;;;;;;15.13;2.40;;;;;;;10.63;100.00;99825.00;4992324;28;20164;-64
2023/03/24 03:16:53;;;;;;;15.60;2.42;;;;;;;10.71;100.00;99835.97;4990180;28;20575;-63
2023/03/24 03:19:55;;;;;;;16.00;2.80;;;;;;;10.60;100.00;99825.97;4992349;28;20389;-63
2023/03/24 03:22:28;;;;;;;12.70;2.10;;;;;;;10.52;100.00;99822.03;4991038;28;20518;-62
2023/03/24 03:24:54;;;;;;;16.60;3.75;;;;;;;10.46;100.00;99846.91;4992223;28;20030;-63
2023/03/24 03:27:26;;;;;;;14.82;3.33;;;;;;;10.46;100.00;99833.72;4992079;28;20556;-60
2023/03/24 03:29:55;;;;;;;12.68;2.53;;;;;;;10.51;100.00;99838.75;4992779;28;20033;-63
2023/03/24 03:32:27;;;;;;;10.25;2.35;;;;;;;10.61;100.00;99843.50;5009981;28;20036;-62
2023/03/24 03:35:01;;;;;;;12.43;2.28;;;;;;;10.57;100.00;99841.09;5011545;28;20032;-63
2023/03/24 03:38:02;;;;;;;15.15;2.58;;;;;;;10.64;100.00;99836.34;5025758;28;20120;-62
2023/03/24 03:40:34;;;;;;;13.75;2.22;;;;;;;10.51;100.00;99842.25;5021432;28;20125;-60
2023/03/24 03:43:00;;;;;;;10.52;2.50;;;;;;;10.52;100.00;99825.53;5008179;28;20092;-60
2023/03/24 03:45:25;;;;;;;10.95;1.90;;;;;;;10.52;100.00;99854.50;5009794;28;20733;-63
2023/03/24 03:47:51;;;;;;;8.02;2.05;;;;;;;10.55;100.00;99843.81;5008247;28;20033;-62
2023/03/24 03:50:16;;;;;;;13.18;2.40;;;;;;;10.56;100.00;99855.19;5008477;28;20520;-58
2023/03/24 03:52:43;;;;;;;12.15;2.28;;;;;;;10.58;100.00;99867.38;5008951;28;20069;-61
2023/03/24 03:55:10;;;;;;;17.70;2.72;;;;;;;10.52;100.00;99851.00;4992226;28;20703;-61
2023/03/24 03:57:36;;;;;;;18.45;3.08;;;;;;;10.50;100.00;99872.16;5010540;28;20124;-61
2023/03/24 04:00:06;;;;;;;18.48;2.60;;;;;;;10.46;100.00;99867.97;5010719;28;20100;-61
2023/03/24 04:03:05;;;;;;;13.50;2.60;;;;;;;10.49;100.00;99866.03;5009683;28;20033;-61
2023/03/24 04:05:35;;;;;;;12.07;3.22;;;;;;;10.49;100.00;99859.91;5028793;28;20037;-61
2023/03/24 04:08:23;;;;;;;21.85;3.15;;;;;;;10.40;100.00;99869.09;5010949;28;20050;-61
2023/03/24 04:11:18;;;;;;;19.53;3.23;;;;;;;10.33;100.00;99860.63;5027439;28;20076;-61
2023/03/24 04:14:18;;;;;;;25.48;2.85;;;;;;;10.38;100.00;99867.47;5014446;28;20691;-60
2023/03/24 04:16:58;;;;;;;25.15;3.15;;;;;;;10.34;100.00;99880.78;5026571;28;20105;-61
2023/03/24 04:19:48;;;;;;;20.63;3.22;;;;;;;10.33;100.00;99886.94;5029060;28;20026;-61
2023/03/24 04:22:40;;;;;;;21.15;3.15;;;;;;;10.33;100.00;99892.22;5027759;28;20029;-64
2023/03/24 04:25:16;;;;;;;28.98;3.83;;;;;;;10.33;100.00;99884.31;5021463;28;20049;-63
2023/03/24 04:28:00;;;;;;;21.08;3.53;;;;;;;10.27;100.00;99910.97;5027995;28;20018;-60
2023/03/24 04:30:49;;;;;;;23.85;3.33;;;;;;;10.15;100.00;99899.25;5028465;28;20034;-61
2023/03/24 04:33:49;;;;;;;39.28;5.00;;;;;;;10.11;100.00;99900.28;5009833;28;20033;-61
2023/03/24 04:36:28;;;;;;;26.95;3.65;;;;;;;10.05;100.00;99901.44;5005497;28;20044;-60
2023/03/24 04:38:55;;;;;;;18.60;3.85;;;;;;;9.90;100.00;99908.25;5011279;28;20021;-63
2023/03/24 04:41:24;;;;;;;23.08;4.28;;;;;;;9.91;100.00;99906.50;5027881;28;20026;-61
2023/03/24 04:43:50;;;;;;;22.63;3.67;;;;;;;9.81;100.00;99920.06;5008006;28;20041;-62
2023/03/24 04:46:19;;;;;;;28.30;4.13;;;;;;;9.82;100.00;99908.59;4996850;28;20025;-60
2023/03/24 04:48:46;;;;;;;28.58;4.05;;;;;;;9.85;100.00;99919.00;5011051;28;20472;-60
2023/03/24 04:51:12;;;;;;;30.48;4.15;;;;;;;9.82;100.00;99919.13;5021748;28;20026;-60
2023/03/24 04:53:38;;;;;;;31.17;4.75;;;;;;;9.78;100.00;99917.56;4989884;28;20516;-61
2023/03/24 04:56:28;;;;;;;27.55;4.10;;;;;;;9.73;100.00;99924.84;5006655;28;20088;-61
2023/03/24 04:58:55;;;;;;;25.27;4.80;;;;;;;9.74;100.00;99931.78;5008423;28;20034;-62
2023/03/24 05:01:20;;;;;;;30.63;4.28;;;;;;;9.74;100.00;99934.41;5011729;28;20048;-62
2023/03/24 05:03:46;;;;;;;27.33;3.72;;;;;;;9.79;100.00;99929.81;5026737;28;20466;-60
2023/03/24 05:06:12;;;;;;;29.23;4.47;;;;;;;9.75;100.00;99937.91;5025984;28;20516;-61
2023/03/24 05:08:38;;;;;;;35.05;4.22;;;;;;;9.72;100.00;99939.75;5027150;28;20030;-60
2023/03/24 05:11:04;;;;;;;36.05;4.55;;;;;;;9.83;100.00;99949.81;5008958;28;20049;-61
2023/03/24 05:13:30;;;;;;;19.88;3.72;;;;;;;9.88;100.00;99954.00;5026667;28;20032;-60
2023/03/24 05:15:55;;;;;;;36.88;5.65;;;;;;;9.85;100.00;99950.56;5024714;28;20029;-60
2023/03/24 05:18:21;;;;;;;34.65;5.13;;;;;;;9.89;100.00;99960.97;5027028;28;20466;-60
2023/03/24 05:20:46;;;;;;;33.42;4.72;;;;;;;9.89;100.00;99950.44;5026488;28;20029;-60
2023/03/24 05:23:12;;;;;;;31.45;6.45;;;;;;;9.95;100.00;99961.56;5026146;28;20090;-60
2023/03/24 05:25:37;;;;;;;33.75;5.85;;;;;;;9.99;100.00;99964.88;5008999;28;20421;-60
2023/03/24 05:28:03;;;;;;;30.90;6.38;;;;;;;10.14;100.00;99975.66;5008896;28;20100;-60
2023/03/24 05:30:28;;;;;;;31.90;5.72;;;;;;;10.15;100.00;99970.31;5008634;28;20041;-62
2023/03/24 05:32:53;;;;;;;25.00;5.20;;;;;;;10.15;100.00;99980.84;5026318;28;20036;-60
2023/03/24 05:35:19;;;;;;;29.00;5.22;;;;;;;10.23;100.00;99977.84;5021743;28;20033;-59
2023/03/24 05:37:44;;;;;;;26.05;5.20;;;;;;;10.28;100.00;99975.84;5011626;28;20033;-61
2023/03/24 05:40:10;;;;;;;28.83;5.10;;;;;;;10.29;100.00;99977.56;5026900;28;20104;-60
2023/03/24 05:42:35;;;;;;;35.38;5.25;;;;;;;10.38;100.00;99999.13;5022793;28;20081;-61
2023/03/24 05:45:01;;;;;;;26.55;4.70;;;;;;;10.33;100.00;99992.28;5025730;28;20021;-63
2023/03/24 05:47:26;;;;;;;24.70;4.03;;;;;;;10.32;100.00;99987.94;5011256;28;20036;-62
2023/03/24 05:49:51;;;;;;;25.48;4.32;;;;;;;10.35;100.00;99995.72;5025648;28;20470;-62
2023/03/24 05:52:19;;;;;;;27.23;4.38;;;;;;;10.47;100.00;99996.94;5020979;28;20432;-62
2023/03/24 05:54:44;;;;;;;24.45;4.50;;;;;;;10.46;100.00;100012.81;5027372;28;20105;-61
2023/03/24 05:57:14;;;;;;;26.63;4.85;;;;;;;10.52;100.00;100002.00;5025942;28;20168;-61
2023/03/24 05:59:40;;;;;;;24.48;4.60;;;;;;;10.58;100.00;99993.81;5021603;28;20044;-62
2023/03/24 06:02:05;;;;;;;26.30;4.90;;;;;;;10.50;100.00;100009.09;5025032;28;20490;-62
2023/03/24 06:04:30;;;;;;;30.58;4.47;;;;;;;10.56;100.00;100010.59;5026618;28;20029;-61
2023/03/24 06:07:00;;;;;;;22.83;4.75;;;;;;;10.58;100.00;100032.47;5025495;28;20026;-61
2023/03/24 06:09:28;;;;;;;;;;;;;;;10.64;100.00;100015.50;5010469;28;20069;-60
2023/03/24 06:11:55;;;;;;;20.95;5.07;;;;;;;10.58;100.00;100035.09;5026423;28;20009;-62
2023/03/24 06:14:20;;;;;;;27.10;4.93;;;;;;;10.70;100.00;100023.13;5023732;28;20109;-60
2023/03/24 06:16:48;;;;;;;23.90;4.15;;;;;;;10.59;100.00;100018.34;5007267;28;20052;-60
2023/03/24 06:19:14;;;;;;;33.83;5.82;;;;;;;10.67;100.00;100031.16;5025344;28;20184;-61
2023/03/24 06:21:40;;;;;;;20.38;4.13;;;;;;;10.66;100.00;100038.25;5026849;28;20040;-60
2023/03/24 06:24:05;;;;;;;20.45;4.78;;;;;;;10.72;100.00;100031.81;5025872;28;20025;-60
2023/03/24 06:26:31;;;;;;;29.33;4.25;;;;;;;10.67;100.00;100026.75;5029427;28;20362;-61
2023/03/24 06:28:57;;;;;;;27.75;5.05;;;;;;;10.66;100.00;100035.59;5030743;28;20044;-62
2023/03/24 06:31:22;;;;;;;26.58;4.97;;;;;;;10.76;100.00;100038.66;5028466;28;20034;-60
2023/03/24 06:33:51;;;;;;;32.22;4.88;;;;;;;10.82;100.00;100038.34;5026408;28;20088;-60
2023/03/24 06:36:17;;;;;;;33.53;4.65;;;;;;;10.79;100.00;100037.63;4992212;28;20018;-62
2023/03/24 06:38:42;;;;;;;23.92;4.45;;;;;;;10.66;100.00;100046.16;4994915;28;20472;-61
2023/03/24 06:41:08;;;;;;;32.97;4.63;;;;;;;10.66;100.00;100042.66;5029830;28;20034;-59
2023/03/24 06:43:34;;;;;;;20.23;4.60;;;;;;;10.70;100.00;100041.56;5026921;28;20033;-61
2023/03/24 06:46:00;;;;;;;26.85;4.40;;;;;;;10.80;100.00;100041.97;5014953;28;20112;-63
2023/03/24 06:48:25;;;;;;;24.40;5.38;;;;;;;10.73;100.00;100060.72;5027620;28;20477;-62
2023/03/24 06:50:51;;;;;;;17.23;3.60;;;;;;;10.67;100.00;100065.41;5012032;28;20033;-62
2023/03/24 06:53:17;;;;;;;24.33;4.07;;;;;;;10.84;100.00;100060.19;4993940;28;20033;-62
2023/03/24 06:55:42;;;;;;;19.25;3.65;;;;;;;11.01;100.00;100084.91;5020431;28;20044;-61
2023/03/24 06:58:07;;;;;;;17.98;3.30;;;;;;;11.05;100.00;100069.81;5022960;28;20047;-62
2023/03/24 07:00:33;;;;;;;18.15;4.20;;;;;;;11.14;100.00;100065.88;4999300;28;20100;-62
2023/03/24 07:03:01;;;;;;;19.77;4.13;;;;;;;11.17;100.00;100081.53;5026045;28;20026;-63
2023/03/24 07:05:26;;;;;;;22.20;4.00;;;;;;;11.24;100.00;100078.53;5017520;28;20109;-62
2023/03/24 07:07:51;;;;;;;23.02;4.43;;;;;;;11.07;100.00;100096.94;5001888;28;20113;-64
2023/03/24 07:10:18;;;;;;;23.02;4.68;;;;;;;11.19;100.00;100084.94;5029162;28;20141;-62
2023/03/24 07:12:44;;;;;;;23.23;3.72;;;;;;;11.11;100.00;100082.69;5029034;28;20112;-61
2023/03/24 07:15:09;;;;;;;27.15;4.07;;;;;;;11.30;100.00;100071.25;5026979;28;20534;-62
2023/03/24 07:17:35;;;;;;;22.70;3.20;;;;;;;11.36;100.00;100081.50;5028863;28;20021;-61
2023/03/24 07:20:00;;;;;;;23.35;3.65;;;;;;;11.44;100.00;100091.66;5028017;28;20022;-62
2023/03/24 07:22:26;;;;;;;24.70;3.60;;;;;;;11.41;100.00;100090.00;5003278;28;20513;-62
2023/03/24 07:24:51;;;;;;;25.52;3.88;;;;;;;11.55;100.00;100097.25;5014710;28;20113;-61
2023/03/24 07:27:16;;;;;;;25.10;4.22;;;;;;;11.57;100.00;100100.69;5008232;28;20084;-63
2023/03/24 07:29:42;;;;;;;30.08;3.58;;;;;;;11.62;100.00;100106.56;5013157;28;20026;-61
2023/03/24 07:32:08;;;;;;;17.52;3.83;;;;;;;11.65;100.00;100092.34;5018973;28;20474;-62
2023/03/24 07:34:35;;;;;;;22.27;3.83;;;;;;;11.61;100.00;100107.50;5027049;28;20482;-61
2023/03/24 07:37:00;;;;;;;21.27;4.45;;;;;;;11.60;100.00;100120.78;5019886;28;20032;-63
2023/03/24 07:39:26;;;;;;;19.85;3.65;;;;;;;11.62;100.00;100125.03;5018145;28;20092;-62
2023/03/24 07:41:52;;;;;;;16.67;3.15;;;;;;;11.70;100.00;100122.03;5010741;28;20116;-61
2023/03/24 07:44:17;;;;;;;24.60;3.65;;;;;;;11.84;100.00;100123.09;5009188;28;20153;-61
2023/03/24 07:46:43;;;;;;;13.63;2.88;;;;;;;11.95;100.00;100135.78;5008490;28;20544;-61
2023/03/24 07:49:08;;;;;;;17.30;3.13;;;;;;;11.89;100.00;100126.34;5019740;28;20072;-61
2023/03/24 07:51:33;;;;;;;21.70;3.53;;;;;;;12.22;100.00;100124.75;5021378;28;20067;-61
2023/03/24 07:53:59;;;;;;;17.50;3.17;;;;;;;12.36;100.00;100130.16;5029298;28;20033;-63
2023/03/24 07:56:24;;;;;;;26.25;4.78;;;;;;;12.42;100.00;100130.75;5028309;28;20030;-61
2023/03/24 07:58:49;;;;;;;13.23;3.00;;;;;;;12.25;100.00;100133.34;5029249;28;20028;-60
2023/03/24 08:01:15;;;;;;;29.55;3.63;;;;;;;12.23;100.00;100144.94;5026113;28;20520;-59
2023/03/24 08:03:40;;;;;;;15.35;2.78;;;;;;;12.25;100.00;100135.13;5010842;28;20339;-62
2023/03/24 08:06:08;;;;;;;20.50;3.28;;;;;;;12.21;100.00;100157.34;5028018;28;20489;-61
2023/03/24 08:08:35;;;;;;;13.10;2.93;;;;;;;12.37;100.00;100136.25;5009749;28;20029;-60
2023/03/24 08:11:00;;;;;;;16.92;3.33;;;;;;;12.28;100.00;100140.25;5027346;28;20362;-58
2023/03/24 08:13:26;;;;;;;22.30;3.03;;;;;;;12.40;100.00;100148.47;5025129;28;20040;-61
2023/03/24 08:15:54;;;;;;;17.88;3.00;;;;;;;12.55;100.00;100149.47;5015637;28;20104;-61
2023/03/24 08:18:21;;;;;;;20.30;3.00;;;;;;;12.52;100.00;100150.44;5015765;28;20037;-62
2023/03/24 08:20:48;;;;;;;18.60;3.28;;;;;;;12.50;100.00;100155.81;5013782;28;20052;-61
2023/03/24 08:23:14;;;;;;;23.88;3.28;;;;;;;12.62;100.00;100156.94;5022503;28;20036;-60
2023/03/24 08:25:40;;;;;;;18.60;3.50;;;;;;;12.52;100.00;100163.66;5027230;28;20101;-63
2023/03/24 08:28:05;;;;;;;17.52;3.30;;;;;;;12.75;100.00;100157.16;5026296;28;20048;-60
2023/03/24 08:30:31;;;;;;;18.50;2.95;;;;;;;12.71;100.00;100160.06;5026610;28;20640;-62
2023/03/24 08:32:59;;;;;;;14.80;2.75;;;;;;;12.85;100.00;100154.88;5027381;28;20036;-63
2023/03/24 08:35:28;;;;;;;16.17;3.22;;;;;;;12.97;100.00;100161.28;5027052;28;20033;-62
2023/03/24 08:37:53;;;;;;;15.43;2.67;;;;;;;13.06;100.00;100159.91;4993972;28;20462;-62
2023/03/24 08:40:22;;;;;;;12.07;2.42;;;;;;;12.87;100.00;100168.00;5022667;28;20036;-62
2023/03/24 08:42:50;;;;;;;14.27;3.70;;;;;;;12.77;100.00;100180.88;4997356;28;20048;-62
2023/03/24 08:45:19;;;;;;;13.40;3.00;;;;;;;12.65;100.00;100171.81;5013386;28;20466;-63
2023/03/24 08:47:45;;;;;;;18.13;2.65;;;;;;;12.61;100.00;100180.81;5016344;28;20037;-62
2023/03/24 08:50:11;;;;;;;13.55;3.25;;;;;;;12.60;100.00;100192.34;5017059;28;20018;-61
2023/03/24 08:52:37;;;;;;;19.02;3.03;;;;;;;12.66;100.00;100186.72;5011068;28;20041;-60
2023/03/24 08:55:02;;;;;;;10.82;2.67;;;;;;;12.70;100.00;100198.00;5017041;28;20030;-61
2023/03/24 08:57:28;;;;;;;17.50;3.00;;;;;;;12.78;100.00;100209.00;5014899;28;20470;-62
2023/03/24 08:59:53;;;;;;;17.55;3.17;;;;;;;12.86;100.00;100200.69;5018638;28;20021;-63
2023/03/24 09:02:18;;;;;;;15.45;3.05;;;;;;;12.82;100.00;100217.66;5010501;28;20042;-63
2023/03/24 09:04:45;;;;;;;16.17;3.10;;;;;;;12.71;100.00;100197.06;5015798;28;20141;-61
2023/03/24 09:07:11;;;;;;;16.88;3.10;;;;;;;12.80;100.00;100209.78;5018132;28;20022;-62
2023/03/24 09:09:38;;;;;;;15.43;3.60;;;;;;;12.93;100.00;100201.19;5017204;28;20091;-62
2023/03/24 09:12:03;;;;;;;18.13;3.00;;;;;;;12.94;100.00;100211.69;5013940;28;20049;-61
2023/03/24 09:14:28;;;;;;;17.60;2.95;;;;;;;13.11;100.00;100216.06;5014506;28;20048;-64
2023/03/24 09:16:55;;;;;;;18.23;3.10;;;;;;;13.01;100.00;100204.28;5016746;28;20478;-61
2023/03/24 09:19:20;;;;;;;21.83;3.13;;;;;;;13.05;100.00;100211.09;5015515;28;20127;-63
2023/03/24 09:21:46;;;;;;;17.75;3.63;;;;;;;13.01;100.00;100223.63;5017709;28;20026;-62
2023/03/24 09:24:12;;;;;;;12.93;3.00;;;;;;;12.84;100.00;100234.25;5005360;28;20029;-63
2023/03/24 09:26:38;;;;;;;21.20;3.30;;;;;;;13.03;100.00;100223.53;4984462;28;20022;-64
2023/03/24 09:29:03;;;;;;;20.45;3.03;;;;;;;12.92;100.00;100196.84;5018310;28;20049;-62
2023/03/24 09:31:29;;;;;;;20.75;3.65;;;;;;;12.99;100.00;100225.53;5010243;28;20044;-61
2023/03/24 09:33:54;;;;;;;14.75;3.08;;;;;;;13.11;100.00;100226.66;5017248;28;20477;-62
2023/03/24 09:36:20;;;;;;;10.82;2.53;;;;;;;13.15;100.00;100227.31;5022182;28;20026;-62
2023/03/24 09:38:45;;;;;;;11.77;2.83;;;;;;;13.06;100.00;100254.28;5016034;28;20017;-64
2023/03/24 09:41:17;;;;;;;12.68;2.60;;;;;;;13.14;100.00;100239.72;5023954;28;20033;-62
2023/03/24 09:43:47;;;;;;;17.35;3.08;;;;;;;13.54;100.00;100234.97;5016470;28;20044;-62
2023/03/24 09:46:18;;;;;;;15.85;3.13;;;;;;;13.71;100.00;100231.34;5013667;28;20663;-61
2023/03/24 09:48:51;;;;;;;18.70;3.20;;;;;;;14.13;100.00;100234.25;5007287;28;20025;-62
2023/03/24 09:51:24;;;;;;;13.82;3.13;;;;;;;14.15;100.00;100229.75;5015306;28;20029;-64
2023/03/24 09:54:24;;;;;;;17.60;3.45;;;;;;;14.13;100.00;100239.56;5007560;28;20371;-64
2023/03/24 09:56:50;;;;;;;16.10;3.30;;;;;;;14.10;99.90;100251.19;4998313;28;20302;-64
2023/03/24 09:59:20;;;;;;;17.05;3.42;;;;;;;13.99;100.00;100246.50;5016699;28;20460;-62
2023/03/24 10:01:46;;;;;;;13.43;2.65;;;;;;;13.92;99.21;100246.94;5025515;28;20033;-63
2023/03/24 10:04:15;;;;;;;15.20;2.72;;;;;;;13.77;98.41;100233.66;5008040;28;20377;-63
2023/03/24 10:06:41;;;;;;;13.35;3.22;;;;;;;13.63;99.77;100245.88;5026455;28;20444;-62
2023/03/24 10:09:21;;;;;;;11.88;2.70;;;;;;;13.59;100.00;100240.84;5000258;28;20079;-61
2023/03/24 10:12:10;;;;;;;18.67;3.20;;;;;;;13.49;100.00;100241.34;4996891;28;20034;-62
2023/03/24 10:14:46;;;;;;;16.35;3.10;;;;;;;13.72;100.00;100243.63;5013413;28;20037;-63
2023/03/24 10:17:35;;;;;;;18.25;3.47;;;;;;;14.18;100.00;100242.78;5011667;28;20490;-62
2023/03/24 10:20:17;;;;;;;8.55;2.88;;;;;;;14.21;98.83;100255.00;5008000;28;20391;-62
2023/03/24 10:23:00;;;;;;;18.20;3.05;;;;;;;14.08;98.84;100247.78;5020671;28;20033;-65
2023/03/24 10:26:06;;;;;;;20.48;2.90;;;;;;;13.89;99.02;100251.50;5014580;28;20121;-63
2023/03/24 10:28:32;;;;;;;9.45;2.60;;;;;;;13.88;98.46;100244.47;4991572;28;20088;-63
2023/03/24 10:31:00;;;;;;;14.25;3.20;;;;;;;13.62;100.00;100230.09;5015674;28;20022;-63
2023/03/24 10:33:25;;;;;;;14.48;3.53;;;;;;;13.48;100.00;100242.28;4997623;28;20025;-64
2023/03/24 10:36:00;;;;;;;19.58;3.10;;;;;;;13.50;100.00;100239.56;4998063;28;20125;-64
2023/03/24 10:38:27;;;;;;;13.43;2.78;;;;;;;13.56;100.00;100247.16;5000382;28;20080;-63
2023/03/24 10:40:53;;;;;;;16.33;2.97;;;;;;;13.67;100.00;100251.00;5016818;28;20018;-63
2023/03/24 10:43:19;;;;;;;18.50;3.65;;;;;;;13.57;100.00;100242.75;5013996;28;20030;-63
2023/03/24 10:45:47;;;;;;;16.48;2.80;;;;;;;13.58;100.00;100245.28;5007074;28;20374;-63
2023/03/24 10:48:14;;;;;;;8.88;2.85;;;;;;;13.69;100.00;100243.84;4997297;28;20034;-63
2023/03/24 10:50:44;;;;;;;13.90;3.20;;;;;;;13.79;100.00;100250.31;4996927;28;20354;-63
2023/03/24 10:53:19;;;;;;;19.85;3.30;;;;;;;13.68;100.00;100218.28;5004617;28;20377;-63
2023/03/24 10:55:46;;;;;;;15.32;3.47;;;;;;;13.76;100.00;100245.19;5013465;28;20040;-64
2023/03/24 10:58:28;;;;;;;11.25;2.25;;;;;;;13.87;100.00;100257.81;5026396;28;20617;-64
2023/03/24 11:00:54;;;;;;;11.63;2.85;;;;;;;13.88;100.00;100247.13;5009090;28;20029;-62
2023/03/24 11:03:30;;;;;;;12.65;2.92;;;;;;;13.87;100.00;100245.44;5009229;28;20049;-64
2023/03/24 11:06:01;;;;;;;10.25;2.45;;;;;;;13.83;100.00;100254.50;5009532;28;20029;-62
2023/03/24 11:08:37;;;;;;;18.35;3.15;;;;;;;13.90;100.00;100245.25;5024457;28;20025;-63
2023/03/24 11:11:32;;;;;;;13.98;2.85;;;;;;;13.81;100.00;100261.66;5025452;28;20041;-63
2023/03/24 11:14:02;;;;;;;14.45;3.03;;;;;;;13.75;100.00;100246.13;4988339;28;20037;-61
2023/03/24 11:16:38;;;;;;;9.15;2.35;;;;;;;13.70;100.00;100269.38;5018474;28;20033;-62
2023/03/24 11:19:03;;;;;;;13.52;2.42;;;;;;;13.76;99.72;100263.72;5018111;28;20021;-63
2023/03/24 11:21:30;;;;;;;9.43;2.20;;;;;;;13.78;99.75;100277.72;5021006;28;20045;-62
2023/03/24 11:24:00;;;;;;;14.35;2.90;;;;;;;13.84;99.42;100266.78;5018153;28;20030;-62
2023/03/24 11:26:31;;;;;;;18.33;2.22;;;;;;;13.66;99.56;100262.56;5003187;28;20018;-63
2023/03/24 11:28:59;;;;;;;10.13;2.40;;;;;;;13.70;100.00;100272.03;5019622;28;20025;-61
2023/03/24 11:31:30;;;;;;;10.50;2.50;;;;;;;13.94;100.00;100277.69;5000290;28;20068;-63